Time,TemperatureF,DewpointF,PressureIn,WindDirection,WindDirectionDegrees,WindSpeedMPH,WindSpeedGustMPH,Humidity,HourlyPrecipIn,Conditions,Clouds,dailyrainin,SoftwareType,DateUTC
2013-06-11 00:13:00,86.2,59.7,29.89,SSW,202,11.9,-999.0,41,-99.99,,,0.00,Acu-Link.com,2013-06-11 05:13:00,
2013-06-11 00:28:00,85.8,58.7,29.89,South,180,7.8,-999.0,40,-99.99,,,0.00,Acu-Link.com,2013-06-11 05:28:00,
2013-06-11 00:43:00,85.3,58.2,29.89,South,180,7.8,-999.0,40,-99.99,,,0.00,Acu-Link.com,2013-06-11 05:43:00,
2013-06-11 00:58:00,85.1,58.0,29.89,SSE,157,7.4,-999.0,40,-99.99,,,0.00,Acu-Link.com,2013-06-11 05:58:00,
2013-06-11 01:13:00,84.6,58.2,29.90,SSW,202,11.4,-999.0,41,-99.99,,,0.00,Acu-Link.com,2013-06-11 06:13:00,
2013-06-11 01:29:00,84.2,58.6,29.89,SSW,202,8.9,-999.0,42,-99.99,,,0.00,Acu-Link.com,2013-06-11 06:29:00,
2013-06-11 01:44:00,83.7,58.8,29.89,SSW,202,8.3,-999.0,43,-99.99,,,0.00,Acu-Link.com,2013-06-11 06:44:00,
2013-06-11 01:59:00,82.8,58.6,29.89,SSW,202,9.4,-999.0,44,-99.99,,,0.00,Acu-Link.com,2013-06-11 06:59:00,
2013-06-11 02:14:00,82.6,58.4,29.90,South,180,9.4,-999.0,44,-99.99,,,0.00,Acu-Link.com,2013-06-11 07:14:00,
2013-06-11 02:29:00,81.5,58.7,29.89,SSE,157,7.8,-999.0,46,-99.99,,,0.00,Acu-Link.com,2013-06-11 07:29:00,
2013-06-11 02:45:00,80.8,58.6,29.89,South,180,8.3,-999.0,47,-99.99,,,0.00,Acu-Link.com,2013-06-11 07:45:00,
2013-06-11 03:00:00,80.8,58.6,29.89,South,180,8.3,-999.0,47,-99.99,,,0.00,Acu-Link.com,2013-06-11 08:00:00,
2013-06-11 03:15:00,80.6,58.5,29.88,SSW,202,9.8,-999.0,47,-99.99,,,0.00,Acu-Link.com,2013-06-11 08:15:00,
2013-06-11 03:30:00,80.6,58.5,29.88,South,180,8.9,-999.0,47,-99.99,,,0.00,Acu-Link.com,2013-06-11 08:30:00,
2013-06-11 03:45:00,79.7,58.3,29.88,SSW,202,8.9,-999.0,48,-99.99,,,0.00,Acu-Link.com,2013-06-11 08:45:00,
2013-06-11 04:00:00,79.7,58.3,29.88,South,180,11.0,-999.0,48,-99.99,,,0.00,Acu-Link.com,2013-06-11 09:00:00,
2013-06-11 04:15:00,79.2,57.8,29.88,SSW,202,8.3,-999.0,48,-99.99,,,0.00,Acu-Link.com,2013-06-11 09:15:00,
2013-06-11 04:30:00,79.0,57.0,29.88,South,180,8.3,-999.0,47,-99.99,,,0.00,Acu-Link.com,2013-06-11 09:30:00,
2013-06-11 04:45:00,78.6,57.3,29.89,SSW,202,6.3,-999.0,48,-99.99,,,0.00,Acu-Link.com,2013-06-11 09:45:00,
2013-06-11 05:01:00,78.4,57.7,29.89,SSW,202,6.3,-999.0,49,-99.99,,,0.00,Acu-Link.com,2013-06-11 10:01:00,
2013-06-11 05:16:00,78.3,58.1,29.89,SE,135,9.8,-999.0,50,-99.99,,,0.00,Acu-Link.com,2013-06-11 10:16:00,
2013-06-11 05:31:00,77.7,58.1,29.90,South,180,7.4,-999.0,51,-99.99,,,0.00,Acu-Link.com,2013-06-11 10:31:00,
2013-06-11 05:46:00,76.5,58.6,29.90,SSE,157,4.7,-999.0,54,-99.99,,,0.00,Acu-Link.com,2013-06-11 10:46:00,
2013-06-11 06:01:00,75.6,58.2,29.90,South,180,0.0,-999.0,55,-99.99,,,0.00,Acu-Link.com,2013-06-11 11:01:00,
2013-06-11 06:17:00,75.0,59.2,29.91,SSE,157,0.0,-999.0,58,-99.99,,,0.00,Acu-Link.com,2013-06-11 11:17:00,
2013-06-11 06:32:00,74.5,59.2,29.91,South,180,0.0,-999.0,59,-99.99,,,0.00,Acu-Link.com,2013-06-11 11:32:00,
2013-06-11 06:47:00,74.8,60.0,29.91,South,180,0.0,-999.0,60,-99.99,,,0.00,Acu-Link.com,2013-06-11 11:47:00,
2013-06-11 07:02:00,75.2,60.3,29.92,SE,135,1.6,-999.0,60,-99.99,,,0.00,Acu-Link.com,2013-06-11 12:02:00,
2013-06-11 07:17:00,73.6,60.2,29.93,SSE,157,0.0,-999.0,63,-99.99,,,0.00,Acu-Link.com,2013-06-11 12:17:00,
2013-06-11 07:33:00,75.4,61.9,29.93,South,180,0.0,-999.0,63,-99.99,,,0.00,Acu-Link.com,2013-06-11 12:33:00,
2013-06-11 07:48:00,76.3,61.4,29.93,South,180,6.7,-999.0,60,-99.99,,,0.00,Acu-Link.com,2013-06-11 12:48:00,
2013-06-11 08:03:00,78.3,62.2,29.93,South,180,5.8,-999.0,58,-99.99,,,0.00,Acu-Link.com,2013-06-11 13:03:00,
2013-06-11 08:18:00,80.6,62.9,29.93,SSW,202,13.0,-999.0,55,-99.99,,,0.00,Acu-Link.com,2013-06-11 13:18:00,
2013-06-11 08:34:00,82.0,63.2,29.93,WSW,247,7.8,-999.0,53,-99.99,,,0.00,Acu-Link.com,2013-06-11 13:34:00,
2013-06-11 08:49:00,82.9,64.0,29.93,SSW,202,9.8,-999.0,53,-99.99,,,0.00,Acu-Link.com,2013-06-11 13:49:00,
2013-06-11 09:04:00,84.6,65.0,29.94,SW,225,11.9,-999.0,52,-99.99,,,0.00,Acu-Link.com,2013-06-11 14:04:00,
2013-06-11 09:19:00,85.8,65.6,29.94,SW,225,11.0,-999.0,51,-99.99,,,0.00,Acu-Link.com,2013-06-11 14:19:00,
2013-06-11 09:34:00,87.3,66.3,29.94,West,270,11.4,-999.0,50,-99.99,,,0.00,Acu-Link.com,2013-06-11 14:34:00,
2013-06-11 09:50:00,87.8,66.8,29.93,SW,225,6.7,-999.0,50,-99.99,,,0.00,Acu-Link.com,2013-06-11 14:50:00,
2013-06-11 10:05:00,88.3,66.7,29.93,WSW,247,9.8,-999.0,49,-99.99,,,0.00,Acu-Link.com,2013-06-11 15:05:00,
2013-06-11 10:20:00,89.4,67.7,29.93,SW,225,8.3,-999.0,49,-99.99,,,0.00,Acu-Link.com,2013-06-11 15:20:00,
2013-06-11 10:35:00,90.7,67.6,29.93,SSW,202,6.7,-999.0,47,-99.99,,,0.00,Acu-Link.com,2013-06-11 15:35:00,
2013-06-11 10:50:00,91.2,67.5,29.93,West,270,9.4,-999.0,46,-99.99,,,0.00,Acu-Link.com,2013-06-11 15:50:00,
2013-06-11 11:05:00,92.5,68.0,29.92,West,270,9.4,-999.0,45,-99.99,,,0.00,Acu-Link.com,2013-06-11 16:05:00,
2013-06-11 11:21:00,93.2,68.0,29.93,West,270,10.3,-999.0,44,-99.99,,,0.00,Acu-Link.com,2013-06-11 16:21:00,
2013-06-11 11:36:00,93.6,67.0,29.93,WSW,247,8.3,-999.0,42,-99.99,,,0.00,Acu-Link.com,2013-06-11 16:36:00,
2013-06-11 11:51:00,94.6,67.2,29.93,South,180,9.4,-999.0,41,-99.99,,,0.00,Acu-Link.com,2013-06-11 16:51:00,
2013-06-11 12:06:00,94.3,65.5,29.92,SW,225,8.3,-999.0,39,-99.99,,,0.00,Acu-Link.com,2013-06-11 17:06:00,
2013-06-11 12:21:00,94.3,64.7,29.93,SSW,202,7.4,-999.0,38,-99.99,,,0.00,Acu-Link.com,2013-06-11 17:21:00,
2013-06-11 12:36:00,97.0,64.7,29.92,West,270,9.8,-999.0,35,-99.99,,,0.00,Acu-Link.com,2013-06-11 17:36:00,
2013-06-11 12:52:00,96.3,64.9,29.92,SW,225,9.8,-999.0,36,-99.99,,,0.00,Acu-Link.com,2013-06-11 17:52:00,
2013-06-11 13:07:00,96.6,64.4,29.92,South,180,10.3,-999.0,35,-99.99,,,0.02,Acu-Link.com,2013-06-11 18:07:00,
2013-06-11 13:22:00,96.1,61.4,29.91,SE,135,11.9,-999.0,32,-99.99,,,0.04,Acu-Link.com,2013-06-11 18:22:00,
2013-06-11 13:37:00,96.6,63.6,29.91,South,180,13.0,-999.0,34,-99.99,,,0.04,Acu-Link.com,2013-06-11 18:37:00,
2013-06-11 13:52:00,96.6,61.9,29.90,SSW,202,9.4,-999.0,32,-99.99,,,0.04,Acu-Link.com,2013-06-11 18:52:00,
2013-06-11 14:08:00,97.5,64.4,29.89,SW,225,11.0,-999.0,34,-99.99,,,0.04,Acu-Link.com,2013-06-11 19:08:00,
2013-06-11 14:23:00,98.6,63.6,29.89,West,270,6.3,-999.0,32,-99.99,,,0.04,Acu-Link.com,2013-06-11 19:23:00,
2013-06-11 14:38:00,99.0,61.1,29.88,South,180,16.1,-999.0,29,-99.99,,,0.04,Acu-Link.com,2013-06-11 19:38:00,
2013-06-11 14:53:00,98.2,61.4,29.88,SE,135,8.9,-999.0,30,-99.99,,,0.04,Acu-Link.com,2013-06-11 19:53:00,
2013-06-11 15:08:00,99.3,60.4,29.87,SSW,202,7.8,-999.0,28,-99.99,,,0.04,Acu-Link.com,2013-06-11 20:08:00,
2013-06-11 15:24:00,98.8,58.9,29.87,South,180,12.5,-999.0,27,-99.99,,,0.04,Acu-Link.com,2013-06-11 20:24:00,
2013-06-11 15:39:00,100.8,57.3,29.86,West,270,7.8,-999.0,24,-99.99,,,0.04,Acu-Link.com,2013-06-11 20:39:00,
2013-06-11 15:54:00,99.9,58.8,29.86,SSE,157,11.4,-999.0,26,-99.99,,,0.04,Acu-Link.com,2013-06-11 20:54:00,
2013-06-11 16:09:00,99.1,57.1,29.85,SSW,202,7.4,-999.0,25,-99.99,,,0.04,Acu-Link.com,2013-06-11 21:09:00,
2013-06-11 16:24:00,100.4,58.1,29.85,SSW,202,14.1,-999.0,25,-99.99,,,0.04,Acu-Link.com,2013-06-11 21:24:00,
2013-06-11 16:40:00,100.8,57.3,29.84,SSW,202,15.0,-999.0,24,-99.99,,,0.04,Acu-Link.com,2013-06-11 21:40:00,
2013-06-11 16:55:00,99.9,56.5,29.84,WSW,247,13.4,-999.0,24,-99.99,,,0.04,Acu-Link.com,2013-06-11 21:55:00,
2013-06-11 17:10:00,100.6,57.1,29.83,SSW,202,3.1,-999.0,24,-99.99,,,0.04,Acu-Link.com,2013-06-11 22:10:00,
2013-06-11 17:25:00,99.5,57.4,29.83,SSW,202,18.1,-999.0,25,-99.99,,,0.04,Acu-Link.com,2013-06-11 22:25:00,
2013-06-11 17:40:00,100.2,59.1,29.82,SW,225,12.5,-999.0,26,-99.99,,,0.04,Acu-Link.com,2013-06-11 22:40:00,
2013-06-11 17:56:00,101.8,57.0,29.82,WSW,247,13.4,-999.0,23,-99.99,,,0.04,Acu-Link.com,2013-06-11 22:56:00,
2013-06-11 18:11:00,99.5,59.5,29.82,SW,225,11.9,-999.0,27,-99.99,,,0.04,Acu-Link.com,2013-06-11 23:11:00,
2013-06-11 18:41:00,99.0,59.1,29.81,SW,225,13.0,-999.0,27,-99.99,,,0.04,Acu-Link.com,2013-06-11 23:41:00,
2013-06-11 18:57:00,98.2,58.5,29.80,South,180,10.3,-999.0,27,-99.99,,,0.04,Acu-Link.com,2013-06-11 23:57:00,
2013-06-11 19:12:00,98.8,58.9,29.80,SSW,202,13.4,-999.0,27,-99.99,,,0.04,Acu-Link.com,2013-06-12 00:12:00,
2013-06-11 19:27:00,98.6,58.8,29.81,SSW,202,17.7,-999.0,27,-99.99,,,0.04,Acu-Link.com,2013-06-12 00:27:00,
2013-06-11 19:42:00,97.7,58.0,29.81,South,180,9.4,-999.0,27,-99.99,,,0.04,Acu-Link.com,2013-06-12 00:42:00,
2013-06-11 19:57:00,97.5,57.9,29.81,SW,225,8.9,-999.0,27,-99.99,,,0.04,Acu-Link.com,2013-06-12 00:57:00,
2013-06-11 20:13:00,96.8,62.9,29.81,SW,225,8.3,-999.0,33,-99.99,,,0.04,Acu-Link.com,2013-06-12 01:13:00,
2013-06-11 20:28:00,95.0,63.8,29.82,South,180,8.9,-999.0,36,-99.99,,,0.04,Acu-Link.com,2013-06-12 01:28:00,
2013-06-11 20:43:00,93.7,63.5,29.83,South,180,11.9,-999.0,37,-99.99,,,0.04,Acu-Link.com,2013-06-12 01:43:00,
2013-06-11 20:58:00,93.2,63.8,29.83,South,180,8.3,-999.0,38,-99.99,,,0.04,Acu-Link.com,2013-06-12 01:58:00,
2013-06-11 21:13:00,92.1,63.6,29.83,SSW,202,8.3,-999.0,39,-99.99,,,0.04,Acu-Link.com,2013-06-12 02:13:00,
2013-06-11 21:28:00,91.8,64.0,29.84,SSW,202,11.0,-999.0,40,-99.99,,,0.04,Acu-Link.com,2013-06-12 02:28:00,
2013-06-11 21:43:00,91.0,64.0,29.84,South,180,11.9,-999.0,41,-99.99,,,0.04,Acu-Link.com,2013-06-12 02:43:00,
2013-06-11 21:58:00,90.5,64.2,29.85,South,180,9.8,-999.0,42,-99.99,,,0.04,Acu-Link.com,2013-06-12 02:58:00,
2013-06-11 22:13:00,88.7,63.9,29.85,South,180,6.7,-999.0,44,-99.99,,,0.04,Acu-Link.com,2013-06-12 03:13:00,
2013-06-11 22:29:00,88.0,64.6,29.86,SE,135,8.3,-999.0,46,-99.99,,,0.04,Acu-Link.com,2013-06-12 03:29:00,
2013-06-11 22:44:00,87.1,65.0,29.86,South,180,10.3,-999.0,48,-99.99,,,0.04,Acu-Link.com,2013-06-12 03:44:00,
2013-06-11 22:59:00,86.4,66.1,29.87,South,180,10.3,-999.0,51,-99.99,,,0.04,Acu-Link.com,2013-06-12 03:59:00,
2013-06-11 23:14:00,85.1,67.1,29.87,SSW,202,8.3,-999.0,55,-99.99,,,0.04,Acu-Link.com,2013-06-12 04:14:00,
2013-06-11 23:29:00,84.4,66.9,29.87,SSE,157,8.9,-999.0,56,-99.99,,,0.04,Acu-Link.com,2013-06-12 04:29:00,
2013-06-11 23:44:00,83.7,67.3,29.87,South,180,8.9,-999.0,58,-99.99,,,0.04,Acu-Link.com,2013-06-12 04:44:00,